San Francisco International, CA

12:21 AM PDT on August 29, 2014 (GMT -0700)
Metro Oakland International | Change Station
CLOSE
Current Station
Airport
Location: Oakland,
Elevation: 7 ft
Nearby Weather Stations

Elev 7 ft 37.72 °N, 122.23 °W | Updated 28 minutes ago

Overcast
Overcast
62 °F
Feels Like 62 °F
N
10
Wind Variable Wind from WNW

Today
High -- | Low -- °F
--% Chance of Precip.
Yesterday
High -- | Low -- °F
Precip. -- in
6:37 AM 7:42 PM
Waxing Crescent, 12% visible
Pressure 29.98 in
Visibility 10.0 miles
Clouds Overcast 800 ft
Dew Point 57 °F
Humidity 84%
Rainfall 0.00 in
Snow Depth Not available.
UV 0 out of 12
Pollen 7.30 out of 12
Ozone Good
PM2.5 Good
Flu Activity Not available.
METAR KOAK 290653Z 30009KT 10SM OVC008 17/14 A2998 RMK AO2 CIG 005V009 SLP151 T01670139 $

More Conditions Fewer Conditions

Pressure 29.98 in
Visibility 10.0 miles
Clouds Overcast 800 ft
Dew Point 57 °F
Humidity 84%
Rainfall 0.00 in
Snow Depth Not available.
UV 0 out of 12
Pollen 7.30 out of 12
Ozone Good
PM2.5 Good
Flu Activity Not available.
METAR KOAK 290653Z 30009KT 10SM OVC008 17/14 A2998 RMK AO2 CIG 005V009 SLP151 T01670139 $

More Conditions Fewer Conditions

10-Day Weather Forecast

Almanac

Astronomy

Aug. 29, 2014 Rise Set
Actual Time 6:37 AM PDT 7:42 PM PDT
Civil Twilight 6:10 AM PDT 8:09 PM PDT
Nautical Twilight 5:38 AM PDT 8:41 PM PDT
Astronomical Twilight 5:04 AM PDT 9:14 PM PDT
Moon 10:26 AM PDT 9:49 PM PDT
Length of Visible Light 13h 59m
Length of Day
13h 05m
Tomorrow will be 2m 18s shorter.
Waxing Crescent, 12% of the Moon is Illuminated
Today
Waxing Crescent
Sep 2
First Quarter
Sep 8
Full
Sep 15
Last Quarter
Sep 24
New

Community

WunderPhotos

Upload Photos

1,748,197 photos uploaded!

Nearby

Air Quality

  Air Quality AQ Index Pollutant
Yesterday Good
PM2.5
Yesterday Good
OZONE
Current Good
PM2.5
Current Good
OZONE
Thursday Good
PM2.5
Friday Good
PM2.5
Saturday Good
PM2.5
Sunday Good
OZONE
Monday Good
OZONE
Tuesday Good
PM2.5

Snow Depth

Station Depth Elevation
Blue Lakes 0 in 8000 ft
Forestdale Creek 0 in 8029 ft
Echo Peak 0 in 7800 ft
Rubicon #2 0 in 7500 ft
Fallen Leaf 0 in 6300 ft

Earthquake Activity

City Distance Mag. Time & Date
Napa, California 43 miles 2.6 11:57 AM PDT
2014-08-27
The Geysers, California 86 miles 2.6 7:42 AM PDT
2014-08-27
Soledad, California 101 miles 2.6 12:15 PM PDT
2014-08-26
Napa, California 42 miles 2.5 10:56 AM PDT
2014-08-26
Minimum magnitude displayed is 2.5.

Coastal Water Temperatures

Place Temperature
No Stations Reporting

Nearby Weather Stations